Details From SAWE - RIO GRANDE
To SAWG - RIO GALLEGOS
Flight Number -
Tags generated
Created
Modified
Stats Distance 142 nm / 263 km
Max Altitude 16,700 ft / 5,090 m
Waypoints 3
Social Downloads 11
Likes 0
Share

Download

Looking for another format? Having issues loading an existing format? Contact us
Advertisement - Login to hide

Notes

Basic altitude profile: - Ascent Rate: 1000ft/min - Ascent Speed: 120kts - Cruise Altitude: 6000ft - Cruise Speed: 140kts - Descent Rate: 1000ft/min - Descent Speed: 120kts Options: - Use NATs: yes - Use PACOTS: yes - Use low airways: yes - Use high airways: yes

Route

SAWE MUBES SAWG

ID Type Via Altitude (ft/m) Position (lat/lon) Dist (leg/tot) Name
O SAWE APT - 0 / 0 -53.77767 / -67.74939 - / 0 nm RIO GRANDE
MUBES FIX - 16,700 / 5,090 -52.80250 / -68.47917 64 / 64 nm
O SAWG APT - 0 / 0 -51.60887 / -69.31264 77 / 142 nm RIO GALLEGOS

Altitude Profile

Advertisement - Login to hide

SAWE

Details ICAO SAWE (RGA)
Name Rio Grande Intl
Region Argentina
Timezone America/Argentina/Ushuaia (UTC-3.0)
Stats Elevation 65 ft / 20 m (AMSL)
Location -53.777600° -67.749500°
Runways 1
Magnetic Variation 11.141° E

METAR

SAWE 142300Z 29023KT CAVOK 06/00 Q0993

Decode

TAF

TAF SAWE 141700Z 1418/1518 29025G40KT 9999 SCT020 TX12/1419Z TN04/1508Z TEMPO 1418/1420 8000 -RADZ SCT010 BECMG 1423/1501 29015G30KT CAVOK TEMPO 1510/1512 9999 RA SCT020

Decode

Departure Runways

ID Width Length Bearing (true/mag) Surface Threshold Overrun Markings Lighting
08 148 ft / 45 m 6,535 ft / 1,992 m 87.46° / 76.32° ASPHALT 0 ft / 0 m 164 ft / 50 m PREC-APP EDGE THRESHOLD
26 148 ft / 45 m 6,535 ft / 1,992 m 267.44° / 256.30° ASPHALT 0 ft / 0 m 604 ft / 184 m PREC-APP EDGE THRESHOLD

SAWG

Details ICAO SAWG (RGL)
Name Rio Gallegos Airport
Region Argentina
Timezone America/Argentina/Rio_Gallegos (UTC-3.0)
Stats Elevation 62 ft / 19 m (AMSL)
Location -51.608800° -69.312700°
Runways 1
Magnetic Variation 11.012° E

METAR

SAWG 142300Z 23011KT 9999 FEW030 08/M05 Q////

Decode

TAF

TAF SAWG 141700Z 1418/1518 28015G35KT CAVOK TX16/1419Z TN04/1512Z TEMPO 1418/1422 9999 SCT030 BECMG 1422/1424 33015KT BECMG 1504/1506 36015G25KT 9999 SCT030 BECMG 1512/1515 CAVOK

Decode

Destination Runways

ID Width Length Bearing (true/mag) Surface Threshold Overrun Markings Lighting
07 148 ft / 45 m 11,607 ft / 3,538 m 85.60° / 74.59° CONCRETE 243 ft / 74 m 804 ft / 245 m PREC-APP EDGE THRESHOLD REIL-OMNI
25 148 ft / 45 m 11,607 ft / 3,538 m 265.56° / 254.55° CONCRETE 0 ft / 0 m 656 ft / 200 m PREC-APP EDGE THRESHOLD SALS REIL-OMNI

Approach Navaids

Runway Type Ident Frequency Range Bearing (true/mag) Slope Elevation
25 DME GL 110.30 MHz 18 nm / 33 km - - 61 ft / 19 m (AMSL)
25 MM MM - - 265.58° / 254.56 ° - 62 ft / 19 m (AMSL)
25 LOC-ILS GL 110.30 MHz 18 nm / 33 km 265.58° / 254.57 ° - 62 ft / 19 m (AMSL)
25 GS GL 110.30 MHz 10 nm / 19 km 265.58° / 254.57 ° 3.00° 62 ft / 19 m (AMSL)

Popular Alternatives